CheckWX is a tool to help pilots better visualize weather data.  It is not intended as a substitute for an official pre-flight weather briefing.

20:52:11 UTC

KAPN METAR
Alpena County Regional Airport
Alpena, Michigan, USA
Current

58 mins ago

KAPN 211954Z 18011KT 7SM -RA OVC013 06/05 A2956 RMK AO2 SLP015 P0004 T00610050
Observed
Nov-21 @ 19:54 UTC
Wind
  • 180° at 11 KTS
Visibility
7 SM
Flight Rules
MVFR
Conditions
Light Rain
Cloud Levels
  • Overcast at 1,300' AGL
Temperature
C / 43°F
Dewpoint
C / 41°F
Humidity
93%
Altimeter
29.56" Hg
Pressure
1001.02 hPa
Current Rain
0.04"
Previous

1 hour ago

KAPN 211942Z 18012G19KT 5SM -RA BR BKN010 OVC017 06/05 A2957 RMK AO2 P0004 T00610050
Observed
Nov-21 @ 19:42 UTC
Wind
  • 180° at 12 KTS
  • Gusting to 19 KTS
Visibility
5 SM
Flight Rules
MVFR
Conditions
Light Rain, Mist
Cloud Levels
  • Broken at 1,000' AGL
  • Overcast at 1,700' AGL
Temperature
C / 43°F
Dewpoint
C / 41°F
Humidity
93%
Altimeter
29.57" Hg
Pressure
1001.32 hPa
Current Rain
0.04"
Previous

2 hours ago

KAPN 211854Z 19012KT 4SM -RA BR OVC017 07/05 A2959 RMK AO2 RAB02 SLP026 P0001 T00670050
Observed
Nov-21 @ 18:54 UTC
Wind
  • 190° at 12 KTS
Visibility
4 SM
Flight Rules
MVFR
Conditions
Light Rain, Mist
Cloud Levels
  • Overcast at 1,700' AGL
Temperature
C / 45°F
Dewpoint
C / 41°F
Humidity
87%
Altimeter
29.59" Hg
Pressure
1002.02 hPa
Current Rain
0.01"